Time;durP1;ratioP1;P1;durP2;ratioP2;P2;SDS_P1;SDS_P2;PMS_P1;PMS_P2;Temp;Humidity;BMP_temperature;BMP_pressure;BME280_temperature;BME280_humidity;BME280_pressure;Samples;Min_cycle;Max_cycle;Signal;HPM_P1;HPM_P2
2021/11/28 00:01:39;;;;;;;1.60;0.17;;;;;;;-0.43;66.91;99150.94;4963978;28;20054;-51
2021/11/28 00:04:06;;;;;;;2.88;0.22;;;;;;;-0.44;67.15;99144.97;4965761;28;20050;-48
2021/11/28 00:06:35;;;;;;;5.68;0.50;;;;;;;-0.47;67.02;99154.22;4964397;28;20055;-53
2021/11/28 00:12:09;;;;;;;0.73;0.50;;;;;;;-0.47;66.67;99165.25;4965613;28;20093;-50
2021/11/28 00:14:37;;;;;;;6.38;0.68;;;;;;;-0.47;67.11;99160.16;4968273;28;20120;-57
2021/11/28 00:17:04;;;;;;;2.50;0.30;;;;;;;-0.52;67.70;99139.69;4971255;28;20113;-46
2021/11/28 00:19:31;;;;;;;0.38;0.22;;;;;;;-0.50;67.14;99133.78;4980173;28;20043;-54
2021/11/28 00:21:58;;;;;;;1.50;0.50;;;;;;;-0.51;67.29;99127.81;4967690;28;20098;-47
2021/11/28 00:24:24;;;;;;;0.70;0.22;;;;;;;-0.53;67.03;99143.03;4970882;28;20660;-56
2021/11/28 00:26:51;;;;;;;0.93;0.40;;;;;;;-0.54;67.55;99148.94;4972385;28;20454;-46
2021/11/28 00:29:18;;;;;;;1.30;0.47;;;;;;;-0.54;67.05;99128.59;4970153;28;20581;-52
2021/11/28 00:31:45;;;;;;;0.15;0.10;;;;;;;-0.56;67.60;99135.34;4968525;28;20117;-50
2021/11/28 00:34:12;;;;;;;3.00;0.30;;;;;;;-0.55;67.54;99126.88;4969515;28;20855;-54
2021/11/28 00:36:39;;;;;;;2.92;0.40;;;;;;;-0.57;67.24;99123.44;4967950;28;20067;-50
2021/11/28 00:39:05;;;;;;;2.00;0.30;;;;;;;-0.58;67.66;99131.88;4972582;28;20050;-58
2021/11/28 00:41:32;;;;;;;1.08;0.50;;;;;;;-0.58;67.60;99136.97;4967274;28;20093;-48
2021/11/28 00:43:59;;;;;;;1.77;0.30;;;;;;;-0.56;66.88;99140.44;4971199;28;20046;-52
2021/11/28 00:46:25;;;;;;;1.02;0.13;;;;;;;-0.57;67.25;99153.94;4968831;28;20054;-50
2021/11/28 00:48:52;;;;;;;3.90;0.45;;;;;;;-0.61;68.25;99147.06;4968925;28;20050;-51
2021/11/28 00:51:32;;;;;;;1.88;0.30;;;;;;;-0.63;67.84;99143.63;4970303;28;20042;-49
2021/11/28 00:53:59;;;;;;;1.50;0.40;;;;;;;-0.60;67.68;99140.28;4968220;28;20105;-51
2021/11/28 00:56:26;;;;;;;0.63;0.35;;;;;;;-0.60;67.69;99138.63;4968782;28;20105;-52
2021/11/28 00:58:52;;;;;;;4.28;0.60;;;;;;;-0.62;67.54;99160.59;4967502;28;20046;-51
2021/11/28 01:01:19;;;;;;;1.88;0.50;;;;;;;-0.61;67.84;99154.69;4968874;28;20038;-49
2021/11/28 01:03:46;;;;;;;0.98;0.22;;;;;;;-0.61;67.91;99161.47;4969688;28;20054;-52
2021/11/28 01:06:13;;;;;;;1.45;0.30;;;;;;;-0.64;67.87;99177.50;4970657;28;20055;-48
2021/11/28 01:08:41;;;;;;;0.68;0.63;;;;;;;-0.63;68.00;99169.06;4980571;28;20057;-50
2021/11/28 01:11:07;;;;;;;1.23;0.32;;;;;;;-0.70;68.56;99162.06;4969076;28;20047;-53
2021/11/28 01:13:34;;;;;;;1.63;0.85;;;;;;;-0.73;68.29;99154.34;4968841;28;20046;-48
2021/11/28 01:16:01;;;;;;;4.88;0.73;;;;;;;-0.78;68.63;99150.00;4966201;28;20050;-50
2021/11/28 01:18:28;;;;;;;3.00;0.68;;;;;;;-0.74;67.96;99155.16;4961570;28;20479;-51
2021/11/28 01:20:55;;;;;;;1.20;0.50;;;;;;;-0.73;68.23;99161.97;4967951;28;20047;-47
2021/11/28 01:23:22;;;;;;;2.20;0.60;;;;;;;-0.74;68.16;99165.34;4964207;28;20047;-47
2021/11/28 01:25:49;;;;;;;0.40;0.40;;;;;;;-0.72;68.17;99163.69;4962289;28;20046;-51
2021/11/28 01:28:15;;;;;;;3.70;1.25;;;;;;;-0.76;68.52;99166.97;4967754;28;20047;-54
2021/11/28 01:30:42;;;;;;;8.48;0.90;;;;;;;-0.76;68.05;99177.13;4965421;28;20058;-49
2021/11/28 01:33:08;;;;;;;2.60;0.38;;;;;;;-0.84;68.27;99167.59;4967156;28;20050;-50
2021/11/28 01:35:35;;;;;;;0.50;0.35;;;;;;;-0.93;68.34;99169.88;4967504;28;20102;-50
2021/11/28 01:38:04;;;;;;;0.55;0.47;;;;;;;-1.00;68.56;99180.69;4967730;28;20053;-47
2021/11/28 01:40:31;;;;;;;1.63;0.38;;;;;;;-1.05;68.42;99186.50;4963900;28;20127;-57
2021/11/28 01:43:01;;;;;;;0.98;0.40;;;;;;;-1.12;68.92;99194.75;4965171;28;20055;-46
2021/11/28 01:45:30;;;;;;;15.02;0.40;;;;;;;-1.15;68.57;99197.19;4967732;28;20113;-54
2021/11/28 01:47:59;;;;;;;1.02;0.20;;;;;;;-1.22;69.34;99197.84;4983616;28;20042;-50
2021/11/28 01:50:29;;;;;;;0.50;0.10;;;;;;;-1.23;69.49;99191.00;4964601;28;20486;-50
2021/11/28 01:52:56;;;;;;;2.38;0.50;;;;;;;-1.26;69.34;99201.06;4965028;28;20075;-49
2021/11/28 01:55:26;;;;;;;1.77;0.20;;;;;;;-1.26;69.25;99193.44;4962989;28;20050;-54
2021/11/28 01:57:54;;;;;;;0.43;0.20;;;;;;;-1.24;69.49;99214.69;4983879;28;20054;-49
2021/11/28 02:00:26;;;;;;;2.78;0.40;;;;;;;-1.22;69.17;99208.00;4979646;28;21349;-59
2021/11/28 02:02:56;;;;;;;1.20;0.30;;;;;;;-1.21;69.28;99210.56;4965775;28;20053;-53
2021/11/28 02:05:22;;;;;;;1.13;0.70;;;;;;;-1.23;69.46;99217.28;4965610;28;20479;-52
2021/11/28 02:07:50;;;;;;;0.60;0.32;;;;;;;-1.22;68.98;99218.16;4970656;28;20061;-52
2021/11/28 02:10:17;;;;;;;1.90;0.63;;;;;;;-1.31;68.70;99222.13;4967714;28;20094;-55
2021/11/28 02:12:46;;;;;;;1.25;0.40;;;;;;;-1.36;68.58;99212.63;4966374;28;20204;-50
2021/11/28 02:15:15;;;;;;;0.28;0.20;;;;;;;-1.39;69.11;99215.94;4977208;28;20059;-51
2021/11/28 02:17:43;;;;;;;1.02;0.30;;;;;;;-1.42;68.86;99211.63;4966527;28;20067;-47
2021/11/28 02:20:12;;;;;;;6.70;0.30;;;;;;;-1.42;69.03;99214.16;4966491;28;20051;-49
2021/11/28 02:22:40;;;;;;;1.20;0.85;;;;;;;-1.43;68.97;99206.50;4969650;28;20117;-52
2021/11/28 02:25:09;;;;;;;2.05;0.43;;;;;;;-1.45;68.99;99229.28;4964145;28;20039;-50
2021/11/28 02:27:36;;;;;;;6.80;0.90;;;;;;;-1.41;69.19;99222.66;4969577;28;20054;-55
2021/11/28 02:30:04;;;;;;;1.20;0.47;;;;;;;-1.49;68.94;99229.16;4974061;28;20471;-49
2021/11/28 02:32:31;;;;;;;1.40;0.77;;;;;;;-1.53;68.96;99218.03;4966265;28;20532;-50
2021/11/28 02:34:58;;;;;;;0.30;0.22;;;;;;;-1.56;68.37;99225.53;4969447;28;20058;-53
2021/11/28 02:37:24;;;;;;;3.80;0.35;;;;;;;-1.53;68.40;99227.34;4969716;28;20054;-52
2021/11/28 02:39:53;;;;;;;0.10;0.10;;;;;;;-1.59;68.45;99218.69;4972787;28;20494;-49
2021/11/28 02:42:20;;;;;;;0.57;0.47;;;;;;;-1.59;68.68;99208.53;4970292;28;20046;-52
2021/11/28 02:44:47;;;;;;;1.17;0.57;;;;;;;-1.60;68.53;99211.88;4967427;28;20047;-50
2021/11/28 02:47:14;;;;;;;1.13;0.40;;;;;;;-1.60;68.96;99222.03;4976016;28;20054;-50
2021/11/28 02:49:41;;;;;;;1.63;0.30;;;;;;;-1.60;68.65;99216.09;4969307;28;20038;-49
2021/11/28 02:52:10;;;;;;;0.73;0.30;;;;;;;-1.62;68.83;99207.56;4966917;28;20047;-50
2021/11/28 02:54:38;;;;;;;1.75;0.60;;;;;;;-1.63;68.36;99205.81;4965283;28;20062;-50
2021/11/28 02:57:09;;;;;;;0.95;0.20;;;;;;;-1.62;69.01;99203.34;4959465;28;20050;-51
2021/11/28 02:59:37;;;;;;;2.33;1.05;;;;;;;-1.62;68.91;99202.50;4959031;28;20069;-50
2021/11/28 03:02:06;;;;;;;0.85;0.30;;;;;;;-1.63;69.15;99211.78;4961655;28;20043;-50
2021/11/28 03:04:34;;;;;;;0.82;0.38;;;;;;;-1.60;68.42;99206.81;4961869;28;20039;-52
2021/11/28 03:07:01;;;;;;;0.93;0.32;;;;;;;-1.63;68.69;99195.66;4966085;28;20054;-49
2021/11/28 03:09:28;;;;;;;2.97;0.60;;;;;;;-1.68;68.60;99182.84;4965739;28;20047;-47
2021/11/28 03:11:55;;;;;;;0.35;0.32;;;;;;;-1.73;68.72;99194.50;4963041;28;20439;-48
2021/11/28 03:14:21;;;;;;;0.95;0.32;;;;;;;-1.71;68.88;99193.78;4967610;28;20039;-51
2021/11/28 03:16:49;;;;;;;2.38;0.63;;;;;;;-1.75;68.46;99196.16;4964483;28;21533;-49
2021/11/28 03:19:15;;;;;;;1.23;0.45;;;;;;;-1.81;68.70;99197.69;4966815;28;20487;-49
2021/11/28 03:21:42;;;;;;;0.40;0.30;;;;;;;-1.82;68.72;99195.94;4965752;28;20117;-48
2021/11/28 03:24:09;;;;;;;0.90;0.20;;;;;;;-1.90;69.15;99192.28;4966455;28;20062;-46
2021/11/28 03:26:40;;;;;;;1.63;0.43;;;;;;;-1.95;68.89;99192.09;4957981;28;20051;-50
2021/11/28 03:29:10;;;;;;;2.38;0.20;;;;;;;-1.97;69.62;99191.22;4967351;28;20058;-47
2021/11/28 03:31:40;;;;;;;0.50;0.43;;;;;;;-1.98;69.21;99189.50;4957915;28;20565;-49
2021/11/28 03:34:09;;;;;;;0.35;0.35;;;;;;;-1.98;69.53;99204.72;4957370;28;20418;-48
2021/11/28 03:36:40;;;;;;;1.33;1.20;;;;;;;-2.03;68.96;99187.59;4961274;28;20458;-48
2021/11/28 03:39:09;;;;;;;1.48;0.22;;;;;;;-2.04;69.27;99194.34;4975810;28;20047;-52
2021/11/28 03:41:36;;;;;;;0.65;0.32;;;;;;;-2.07;68.93;99200.19;4961401;28;20059;-50
2021/11/28 03:44:04;;;;;;;0.55;0.50;;;;;;;-2.04;68.53;99198.53;4965278;28;20046;-47
2021/11/28 03:46:32;;;;;;;0.75;0.43;;;;;;;-2.06;68.94;99203.59;4965541;28;20055;-50
2021/11/28 03:49:01;;;;;;;1.20;0.40;;;;;;;-2.05;69.44;99206.97;4965692;28;20117;-47
2021/11/28 03:51:28;;;;;;;2.03;0.43;;;;;;;-2.09;69.07;99217.00;4965695;28;20051;-47
2021/11/28 03:53:55;;;;;;;0.63;0.20;;;;;;;-2.09;68.90;99217.00;4966505;28;20058;-54
2021/11/28 03:56:22;;;;;;;1.13;0.50;;;;;;;-2.12;69.83;99210.97;4966405;28;20451;-51
2021/11/28 03:58:50;;;;;;;2.35;0.50;;;;;;;-2.17;69.66;99213.34;4964068;28;20051;-49
2021/11/28 04:01:18;;;;;;;3.28;0.47;;;;;;;-2.15;69.29;99211.75;4966184;28;20054;-50
2021/11/28 04:03:46;;;;;;;0.73;0.43;;;;;;;-2.13;69.01;99216.88;4958915;28;20043;-51
2021/11/28 04:06:14;;;;;;;1.27;0.80;;;;;;;-2.18;69.33;99215.84;4962192;28;20058;-54
2021/11/28 04:08:42;;;;;;;1.45;0.40;;;;;;;-2.24;69.62;99224.97;4962319;28;20141;-55
2021/11/28 04:11:09;;;;;;;1.55;0.30;;;;;;;-2.24;69.24;99224.09;4956976;28;20050;-47
2021/11/28 04:13:37;;;;;;;0.32;0.10;;;;;;;-2.26;69.09;99208.81;4957819;28;20192;-45
2021/11/28 04:16:05;;;;;;;1.38;0.47;;;;;;;-2.28;69.94;99204.50;4966913;28;20059;-47
2021/11/28 04:18:34;;;;;;;1.13;0.22;;;;;;;-2.26;69.94;99197.81;4966419;28;20134;-51
2021/11/28 04:21:01;;;;;;;1.73;0.88;;;;;;;-2.29;70.08;99192.63;4965668;28;20540;-52
2021/11/28 04:23:28;;;;;;;0.10;0.10;;;;;;;-2.33;70.31;99200.13;4969829;28;20043;-54
2021/11/28 04:25:55;;;;;;;1.00;0.38;;;;;;;-2.33;69.32;99192.50;4962123;28;20050;-51
2021/11/28 04:28:21;;;;;;;2.05;0.40;;;;;;;-2.35;69.40;99190.75;4965494;28;20098;-57
2021/11/28 04:30:48;;;;;;;1.20;0.38;;;;;;;-2.36;69.59;99189.88;4963580;28;20079;-50
2021/11/28 04:33:15;;;;;;;4.13;0.50;;;;;;;-2.34;69.70;99200.06;4964769;28;20061;-48
2021/11/28 04:35:43;;;;;;;2.33;0.45;;;;;;;-2.35;70.10;99201.75;4967749;28;20058;-51
2021/11/28 04:38:11;;;;;;;2.45;0.20;;;;;;;-2.35;69.73;99203.41;4964399;28;20590;-49
2021/11/28 04:40:37;;;;;;;4.40;0.28;;;;;;;-2.36;70.08;99207.63;4961820;28;20102;-48
2021/11/28 04:43:04;;;;;;;2.38;0.63;;;;;;;-2.37;70.04;99210.97;4962564;28;20499;-48
2021/11/28 04:45:31;;;;;;;1.10;0.32;;;;;;;-2.37;69.22;99207.56;4967439;28;20093;-48
2021/11/28 04:47:58;;;;;;;0.32;0.13;;;;;;;-2.39;69.94;99202.47;4965205;28;20051;-55
2021/11/28 04:50:24;;;;;;;5.47;0.55;;;;;;;-2.38;69.40;99204.19;4962344;28;20055;-47
2021/11/28 04:52:51;;;;;;;0.32;0.30;;;;;;;-2.39;69.26;99207.53;4963758;28;20035;-53
2021/11/28 04:55:18;;;;;;;0.63;0.30;;;;;;;-2.38;70.20;99214.31;4961074;28;20194;-57
2021/11/28 04:57:45;;;;;;;1.05;0.95;;;;;;;-2.40;69.32;99215.94;4966385;28;20050;-49
2021/11/28 05:00:18;;;;;;;1.75;0.30;;;;;;;-2.43;69.97;99214.97;4966981;28;20101;-49
2021/11/28 05:02:45;;;;;;;1.77;0.63;;;;;;;-2.41;70.12;99213.34;4982320;28;20050;-48
2021/11/28 05:05:13;;;;;;;2.70;0.30;;;;;;;-2.44;69.28;99214.09;4968358;28;20051;-50
2021/11/28 05:07:40;;;;;;;1.35;0.88;;;;;;;-2.47;69.86;99217.38;4968591;28;20074;-49
2021/11/28 05:10:07;;;;;;;0.85;0.40;;;;;;;-2.48;70.17;99209.72;4968884;28;20047;-45
2021/11/28 05:12:34;;;;;;;4.30;0.20;;;;;;;-2.53;70.19;99207.00;4970110;28;20046;-50
2021/11/28 05:15:00;;;;;;;2.63;0.40;;;;;;;-2.53;69.42;99208.69;4967900;28;20121;-53
2021/11/28 05:17:27;;;;;;;1.25;0.57;;;;;;;-2.54;69.61;99212.06;4966915;28;20047;-54
2021/11/28 05:19:54;;;;;;;0.80;0.40;;;;;;;-2.54;69.94;99206.97;4968278;28;20371;-51
2021/11/28 05:22:20;;;;;;;1.42;1.02;;;;;;;-2.55;70.39;99207.75;4966369;28;20055;-50
2021/11/28 05:24:50;;;;;;;2.38;0.52;;;;;;;-2.57;70.32;99202.63;4968212;28;20055;-53
2021/11/28 05:27:17;;;;;;;0.50;0.30;;;;;;;-2.57;69.24;99197.56;4969254;28;20042;-52
2021/11/28 05:29:45;;;;;;;3.33;0.50;;;;;;;-2.58;69.22;99200.91;4968917;28;21706;-49
2021/11/28 05:32:11;;;;;;;1.52;0.30;;;;;;;-2.59;69.56;99200.06;4967465;28;20102;-52
2021/11/28 05:34:38;;;;;;;2.58;0.20;;;;;;;-2.61;69.71;99200.78;4964395;28;20093;-51
2021/11/28 05:37:05;;;;;;;3.13;1.50;;;;;;;-2.65;69.86;99206.56;4966759;28;20967;-49
2021/11/28 05:39:31;;;;;;;0.60;0.20;;;;;;;-2.66;70.13;99198.13;4969996;28;20054;-49
2021/11/28 05:41:59;;;;;;;0.88;0.47;;;;;;;-2.69;70.32;99205.59;4963498;28;20133;-50
2021/11/28 05:44:25;;;;;;;1.02;0.30;;;;;;;-2.72;70.26;99203.81;4969176;28;20113;-46
2021/11/28 05:46:52;;;;;;;1.95;0.50;;;;;;;-2.72;70.53;99213.97;4969084;28;20514;-48
2021/11/28 05:49:19;;;;;;;3.28;0.68;;;;;;;-2.73;70.23;99217.28;4966355;28;20161;-51
2021/11/28 05:51:45;;;;;;;1.17;0.45;;;;;;;-2.73;70.23;99221.50;4963935;28;20089;-45
2021/11/28 05:54:12;;;;;;;3.05;0.98;;;;;;;-2.77;70.29;99224.72;4964404;28;20094;-52
2021/11/28 05:56:39;;;;;;;1.38;0.20;;;;;;;-2.77;69.82;99229.81;4968518;28;20046;-51
2021/11/28 05:59:05;;;;;;;1.27;0.43;;;;;;;-2.76;70.33;99231.53;4967375;28;20055;-51
2021/11/28 06:01:32;;;;;;;0.73;0.38;;;;;;;-2.79;69.91;99239.00;4966044;28;20198;-47
2021/11/28 06:03:58;;;;;;;0.40;0.28;;;;;;;-2.81;70.83;99238.94;4964078;28;20057;-47
2021/11/28 06:06:25;;;;;;;0.57;0.20;;;;;;;-2.85;70.83;99237.09;4966471;28;20042;-52
2021/11/28 06:08:53;;;;;;;0.82;0.43;;;;;;;-2.84;69.73;99244.75;4969429;28;20062;-54
2021/11/28 06:11:20;;;;;;;1.52;0.20;;;;;;;-2.85;70.16;99243.03;4967614;28;20533;-50
2021/11/28 06:13:50;;;;;;;4.35;0.50;;;;;;;-2.84;70.48;99243.88;4967396;28;20038;-47
2021/11/28 06:16:18;;;;;;;0.32;0.25;;;;;;;-2.87;70.89;99242.09;4967061;28;20051;-52
2021/11/28 06:18:45;;;;;;;0.65;0.20;;;;;;;-2.89;69.75;99245.38;4971929;28;20084;-50
2021/11/28 06:21:11;;;;;;;0.40;0.30;;;;;;;-2.90;70.18;99243.66;4965536;28;20483;-47
2021/11/28 06:23:38;;;;;;;0.75;0.30;;;;;;;-2.90;70.98;99236.91;4968068;28;20526;-46
2021/11/28 06:26:05;;;;;;;1.17;1.00;;;;;;;-2.92;70.82;99238.53;4965204;28;20978;-50
2021/11/28 06:28:33;;;;;;;1.48;0.63;;;;;;;-2.92;70.53;99241.06;4965233;28;20043;-52
2021/11/28 06:31:00;;;;;;;4.55;0.70;;;;;;;-2.95;70.80;99246.00;4968445;28;20050;-49
2021/11/28 06:33:27;;;;;;;2.95;0.77;;;;;;;-2.93;70.17;99249.50;4967629;28;20549;-49
2021/11/28 06:35:54;;;;;;;1.35;1.25;;;;;;;-2.95;70.34;99251.09;4967486;28;20541;-50
2021/11/28 06:38:21;;;;;;;5.20;0.50;;;;;;;-2.97;69.84;99257.78;4965422;28;20051;-52
2021/11/28 06:40:47;;;;;;;0.47;0.40;;;;;;;-2.97;70.25;99266.22;4968726;28;20105;-51
2021/11/28 06:43:15;;;;;;;0.73;0.38;;;;;;;-2.99;70.39;99266.97;4967065;28;20051;-50
2021/11/28 06:45:42;;;;;;;1.95;0.45;;;;;;;-2.99;70.44;99270.38;4968831;28;20121;-48
2021/11/28 06:48:09;;;;;;;0.95;0.30;;;;;;;-3.01;70.13;99273.66;4967603;28;20062;-49
2021/11/28 06:50:36;;;;;;;1.48;0.30;;;;;;;-3.01;69.62;99271.13;4964214;28;20055;-50
2021/11/28 06:53:03;;;;;;;2.70;0.60;;;;;;;-3.01;69.50;99271.13;4962265;28;20078;-49
2021/11/28 06:55:32;;;;;;;1.33;0.50;;;;;;;-3.05;70.22;99279.38;4977775;28;20418;-46
2021/11/28 06:57:59;;;;;;;4.10;0.75;;;;;;;-3.06;70.31;99275.13;4964495;28;20046;-45
2021/11/28 07:00:25;;;;;;;0.95;0.30;;;;;;;-3.07;69.75;99281.00;4965767;28;20054;-48
2021/11/28 07:02:52;;;;;;;3.25;0.80;;;;;;;-3.10;70.53;99285.16;4967721;28;20054;-50
2021/11/28 07:05:19;;;;;;;0.80;0.47;;;;;;;-3.10;69.63;99281.75;4963950;28;20538;-50
2021/11/28 07:07:45;;;;;;;2.05;0.40;;;;;;;-3.13;70.67;99286.69;4965838;28;20050;-47
2021/11/28 07:10:12;;;;;;;0.55;0.30;;;;;;;-3.14;69.72;99284.97;4964436;28;20051;-48
2021/11/28 07:12:39;;;;;;;0.50;0.38;;;;;;;-3.15;70.27;99278.16;4959130;28;20063;-54
2021/11/28 07:15:06;;;;;;;3.03;0.55;;;;;;;-3.16;70.81;99282.38;4968547;28;20106;-46
2021/11/28 07:17:33;;;;;;;2.95;0.52;;;;;;;-3.17;70.15;99284.84;4966124;28;20054;-50
2021/11/28 07:20:00;;;;;;;0.55;0.55;;;;;;;-3.17;70.68;99289.91;4968606;28;20058;-48
2021/11/28 07:22:26;;;;;;;1.33;0.93;;;;;;;-3.18;69.89;99286.50;4964520;28;20046;-47
2021/11/28 07:24:54;;;;;;;2.00;0.68;;;;;;;-3.20;70.70;99295.72;4967486;28;20051;-50
2021/11/28 07:27:20;;;;;;;0.47;0.40;;;;;;;-3.22;70.17;99287.19;4967883;28;20054;-50
2021/11/28 07:29:47;;;;;;;4.70;0.50;;;;;;;-3.21;70.49;99288.06;4969042;28;20089;-53
2021/11/28 07:32:14;;;;;;;0.80;0.45;;;;;;;-3.21;69.89;99293.97;4966236;28;20051;-48
2021/11/28 07:34:41;;;;;;;0.63;0.20;;;;;;;-3.21;69.85;99293.97;4967949;28;20059;-49
2021/11/28 07:37:07;;;;;;;0.60;0.40;;;;;;;-3.19;69.83;99302.53;4964571;28;20051;-52
2021/11/28 07:39:34;;;;;;;1.60;0.40;;;;;;;-3.17;70.18;99310.19;4970842;28;20076;-45
2021/11/28 07:42:01;;;;;;;1.10;0.40;;;;;;;-3.20;70.05;99307.53;4970298;28;20050;-50
2021/11/28 07:44:27;;;;;;;0.90;0.75;;;;;;;-3.19;70.43;99299.97;4967136;28;20051;-50
2021/11/28 07:46:54;;;;;;;1.38;0.63;;;;;;;-3.19;70.02;99297.44;4966740;28;20408;-45
2021/11/28 07:49:22;;;;;;;0.70;0.30;;;;;;;-3.21;69.93;99296.50;4966094;28;20427;-50
2021/11/28 07:51:50;;;;;;;1.20;0.30;;;;;;;-3.22;70.37;99297.31;4970741;28;20057;-50
2021/11/28 07:54:17;;;;;;;1.50;0.50;;;;;;;-3.20;70.49;99295.72;4965952;28;21189;-49
2021/11/28 07:56:44;;;;;;;1.95;0.50;;;;;;;-3.21;69.45;99293.97;4968519;28;20039;-51
2021/11/28 07:59:11;;;;;;;2.83;0.45;;;;;;;-3.19;70.21;99299.97;4955666;28;20055;-50
2021/11/28 08:01:38;;;;;;;2.63;0.50;;;;;;;-3.21;70.08;99299.03;4966703;28;20054;-50
2021/11/28 08:04:05;;;;;;;0.43;0.22;;;;;;;-3.18;69.75;99311.84;4965636;28;20118;-49
2021/11/28 08:06:32;;;;;;;4.95;0.63;;;;;;;-3.06;69.91;99303.00;4968584;28;20085;-48
2021/11/28 08:08:58;;;;;;;3.55;0.52;;;;;;;-2.87;69.12;99302.94;4968718;28;20070;-47
2021/11/28 08:11:25;;;;;;;1.30;0.40;;;;;;;-2.69;68.75;99307.00;4966509;28;20427;-47
2021/11/28 08:13:53;;;;;;;4.70;0.50;;;;;;;-2.55;69.48;99294.84;4967486;28;20454;-46
2021/11/28 08:16:20;;;;;;;0.52;0.30;;;;;;;-2.33;69.21;99299.06;4963938;28;20055;-50
2021/11/28 08:18:47;;;;;;;1.23;0.40;;;;;;;-1.94;69.23;99297.94;4965000;28;20484;-54
2021/11/28 08:21:13;;;;;;;1.27;0.40;;;;;;;-1.53;68.62;99304.38;4966430;28;20430;-49
2021/11/28 08:23:42;;;;;;;3.00;0.40;;;;;;;-1.11;68.33;99302.38;4967894;28;20042;-52
2021/11/28 08:26:09;;;;;;;0.95;0.68;;;;;;;-0.80;67.63;99304.22;4966924;28;20054;-52
2021/11/28 08:28:36;;;;;;;2.15;0.60;;;;;;;-0.32;67.31;99307.31;4967090;28;20058;-52
2021/11/28 08:31:03;;;;;;;4.47;0.40;;;;;;;0.31;66.69;99303.97;4963716;28;20054;-47
2021/11/28 08:33:32;;;;;;;1.10;0.55;;;;;;;0.99;65.55;99302.25;4969315;28;20491;-49
2021/11/28 08:35:59;;;;;;;2.35;0.73;;;;;;;1.68;63.36;99299.53;4974318;28;20085;-52
2021/11/28 08:38:27;;;;;;;3.35;0.90;;;;;;;2.28;61.79;99305.00;4983895;28;20058;-50
2021/11/28 08:40:53;;;;;;;2.13;0.95;;;;;;;2.72;60.67;99299.78;4966917;28;20047;-48
2021/11/28 08:43:20;;;;;;;1.85;0.50;;;;;;;2.96;60.23;99294.22;4967646;28;20043;-53
2021/11/28 08:45:47;;;;;;;2.88;0.55;;;;;;;3.06;57.63;99297.78;4965841;28;20078;-50
2021/11/28 08:48:13;;;;;;;2.25;0.30;;;;;;;3.15;58.99;99297.97;4970494;28;20054;-48
2021/11/28 08:50:40;;;;;;;1.10;0.30;;;;;;;3.51;58.67;99293.34;4967743;28;20105;-51
2021/11/28 08:53:08;;;;;;;2.28;0.57;;;;;;;3.94;57.73;99287.03;4968032;28;20089;-51
2021/11/28 08:55:36;;;;;;;2.88;0.50;;;;;;;4.52;57.56;99293.66;4966942;28;20110;-48
2021/11/28 08:58:04;;;;;;;1.00;0.32;;;;;;;5.06;56.14;99290.69;4966236;28;20054;-47
2021/11/28 09:00:31;;;;;;;2.58;0.40;;;;;;;5.63;56.12;99292.78;4960813;28;20047;-48
2021/11/28 09:02:58;;;;;;;2.75;0.65;;;;;;;6.18;52.53;99287.88;4955590;28;20053;-46
2021/11/28 09:05:25;;;;;;;1.83;0.30;;;;;;;6.47;51.43;99286.22;4957217;28;20054;-46
2021/11/28 09:07:52;;;;;;;2.67;0.43;;;;;;;6.41;51.24;99290.50;4957443;28;20050;-49
2021/11/28 09:10:19;;;;;;;3.78;0.45;;;;;;;6.37;50.69;99291.38;4958652;28;20502;-48
2021/11/28 09:12:46;;;;;;;2.40;0.73;;;;;;;6.67;51.80;99297.41;4956310;28;20070;-49
2021/11/28 09:15:13;;;;;;;2.45;0.82;;;;;;;7.14;50.96;99302.56;4960239;28;20043;-52
2021/11/28 09:17:46;;;;;;;1.38;0.63;;;;;;;7.51;49.16;99305.94;4963324;28;20098;-52
2021/11/28 09:20:13;;;;;;;1.58;0.55;;;;;;;8.03;46.79;99310.09;4955212;28;20058;-47
2021/11/28 09:25:27;;;;;;;4.57;0.60;;;;;;;8.94;47.30;99309.56;4962104;28;20082;-55
2021/11/28 09:27:56;;;;;;;1.85;0.38;;;;;;;9.22;45.25;99315.38;4965835;28;20074;-50
2021/11/28 09:30:24;;;;;;;1.17;0.63;;;;;;;9.30;42.63;99306.69;4965957;28;20055;-55
2021/11/28 09:32:53;;;;;;;1.95;0.73;;;;;;;9.68;44.70;99300.28;4965876;28;20054;-51
2021/11/28 09:35:23;;;;;;;1.17;0.70;;;;;;;9.74;41.00;99307.97;4978787;28;20059;-51
2021/11/28 09:37:51;;;;;;;1.92;0.93;;;;;;;10.23;43.88;99309.97;4981469;28;20046;-46
2021/11/28 09:40:17;;;;;;;2.47;0.75;;;;;;;10.48;43.52;99305.34;4966306;28;20117;-49
2021/11/28 09:42:52;;;;;;;1.33;0.70;;;;;;;10.95;40.77;99309.81;4965523;28;20054;-52
2021/11/28 09:45:20;;;;;;;1.05;0.60;;;;;;;11.11;42.28;99304.38;4965717;28;20475;-50
2021/11/28 09:47:47;;;;;;;1.15;0.60;;;;;;;11.05;39.72;99311.38;4969607;28;20479;-49
2021/11/28 09:50:14;;;;;;;1.77;0.75;;;;;;;11.25;40.56;99312.75;4967002;28;20547;-51
2021/11/28 09:52:43;;;;;;;2.92;0.65;;;;;;;11.16;40.06;99320.72;4967372;28;20046;-48
2021/11/28 09:55:16;;;;;;;0.52;0.35;;;;;;;11.13;38.98;99318.16;4982127;28;20057;-49
2021/11/28 09:57:43;;;;;;;2.50;0.73;;;;;;;11.13;39.02;99318.16;4967357;28;20050;-49
2021/11/28 10:00:12;;;;;;;2.70;0.93;;;;;;;11.25;39.67;99328.31;4970566;28;20064;-51
2021/11/28 10:02:40;;;;;;;2.13;0.70;;;;;;;11.22;37.68;99315.44;4968339;28;20498;-51
2021/11/28 10:05:10;;;;;;;2.75;0.60;;;;;;;11.36;38.37;99319.50;4968806;28;20050;-51
2021/11/28 10:07:41;;;;;;;;;;;;;;;11.49;36.70;99321.00;4966343;28;20054;-50
2021/11/28 10:10:09;;;;;;;2.95;0.65;;;;;;;11.72;38.32;99316.25;4969141;28;19929;-51
2021/11/28 10:12:41;;;;;;;2.47;0.50;;;;;;;12.01;38.29;99307.91;4967257;28;20462;-51
2021/11/28 10:15:12;;;;;;;2.80;0.85;;;;;;;12.24;38.45;99306.59;4967786;28;20050;-51
2021/11/28 10:17:39;;;;;;;4.90;1.20;;;;;;;12.49;37.99;99298.25;4968321;28;20665;-49
2021/11/28 10:20:10;;;;;;;1.08;0.60;;;;;;;12.63;36.44;99291.91;4964970;28;20493;-49
2021/11/28 10:22:38;;;;;;;1.20;0.52;;;;;;;12.74;37.07;99297.69;4969506;28;20058;-54
2021/11/28 10:25:16;;;;;;;2.95;0.70;;;;;;;12.68;36.20;99292.63;4963319;28;20141;-47
2021/11/28 10:27:47;;;;;;;0.90;0.43;;;;;;;12.23;34.54;99289.31;4973559;28;20042;-52
2021/11/28 10:30:18;;;;;;;2.33;0.57;;;;;;;11.29;35.84;99282.47;4964226;28;20476;-52
2021/11/28 10:32:49;;;;;;;1.10;0.55;;;;;;;10.46;36.99;99291.56;4968698;28;20042;-52
2021/11/28 10:35:17;;;;;;;2.50;0.77;;;;;;;9.75;37.32;99299.31;4965298;28;20146;-54
2021/11/28 10:37:48;;;;;;;2.03;0.60;;;;;;;8.86;37.15;99297.56;4968325;28;20057;-55
2021/11/28 10:40:26;;;;;;;2.00;0.50;;;;;;;7.86;37.89;99302.41;4966146;28;20061;-55
2021/11/28 10:43:11;;;;;;;1.35;0.57;;;;;;;7.32;41.51;99300.81;4964041;28;20101;-53
2021/11/28 10:45:47;;;;;;;4.13;0.40;;;;;;;7.15;41.37;99304.28;4964868;28;20047;-52
2021/11/28 10:48:24;;;;;;;1.23;0.55;;;;;;;7.16;41.64;99302.59;4963263;28;20101;-54
2021/11/28 10:50:52;;;;;;;2.60;0.65;;;;;;;6.91;41.84;99292.28;4979606;28;20059;-54
2021/11/28 10:53:21;;;;;;;1.45;0.47;;;;;;;6.49;41.92;99287.09;4968819;28;20525;-51
2021/11/28 10:55:54;;;;;;;1.83;0.65;;;;;;;6.10;43.41;99284.41;4960682;28;20069;-57
2021/11/28 10:58:25;;;;;;;2.35;0.70;;;;;;;5.79;44.41;99274.84;4968031;28;20046;-53
2021/11/28 11:01:07;;;;;;;1.25;0.50;;;;;;;5.53;44.23;99268.75;4964936;28;20062;-52
2021/11/28 11:03:39;;;;;;;2.45;1.02;;;;;;;5.40;45.81;99261.81;4965323;28;20050;-53
2021/11/28 11:06:21;;;;;;;0.85;0.35;;;;;;;5.33;45.34;99258.34;4963166;28;20055;-53
2021/11/28 11:08:53;;;;;;;0.90;0.63;;;;;;;5.38;45.74;99264.38;4965155;28;20051;-53
2021/11/28 11:11:21;;;;;;;1.77;0.45;;;;;;;5.43;44.86;99255.84;4966696;28;20061;-50
2021/11/28 11:14:05;;;;;;;1.38;0.30;;;;;;;5.33;45.09;99263.47;4975323;28;20512;-53
2021/11/28 11:16:42;;;;;;;1.23;0.77;;;;;;;5.14;45.97;99265.94;4965183;28;20057;-51
2021/11/28 11:19:31;;;;;;;1.63;0.50;;;;;;;5.06;46.80;99272.72;4968511;28;20121;-50
2021/11/28 11:22:01;;;;;;;3.03;0.80;;;;;;;5.20;47.92;99270.25;4964886;28;20054;-56
2021/11/28 11:24:28;;;;;;;1.58;0.85;;;;;;;5.38;47.63;99259.22;4964180;28;20038;-53
2021/11/28 11:27:05;;;;;;;2.28;0.82;;;;;;;5.55;47.96;99260.19;4967748;28;20101;-54
2021/11/28 11:29:32;;;;;;;2.45;1.00;;;;;;;5.65;47.65;99255.09;4968399;28;20117;-53
2021/11/28 11:31:58;;;;;;;1.13;0.55;;;;;;;5.74;47.99;99250.88;4963631;28;20051;-52
2021/11/28 11:34:28;;;;;;;3.90;1.25;;;;;;;5.90;48.35;99252.63;4967057;28;20054;-53
2021/11/28 11:37:08;;;;;;;1.25;0.70;;;;;;;6.09;47.83;99252.72;4966314;28;20133;-51
2021/11/28 11:39:35;;;;;;;5.10;1.00;;;;;;;6.17;47.36;99250.16;4964539;28;20094;-48
2021/11/28 11:42:07;;;;;;;2.30;0.50;;;;;;;6.03;46.15;99250.09;4968612;28;20050;-51
2021/11/28 11:44:34;;;;;;;2.85;1.23;;;;;;;5.88;48.15;99256.06;4969984;28;20101;-50